Time;durP1;ratioP1;P1;durP2;ratioP2;P2;SDS_P1;SDS_P2;PMS_P1;PMS_P2;Temp;Humidity;BMP_temperature;BMP_pressure;BME280_temperature;BME280_humidity;BME280_pressure;Samples;Min_cycle;Max_cycle;Signal;HPM_P1;HPM_P2
2021/04/11 00:00:27;;;;;;;17.48;13.10;;;11.10;99.90;;;;;;5014786;28;20053;-78
2021/04/11 00:02:54;;;;;;;16.65;13.20;;;11.20;99.90;;;;;;5017678;28;20050;-81
2021/04/11 00:05:23;;;;;;;14.40;12.75;;;11.30;99.90;;;;;;5014608;28;20153;-78
2021/04/11 00:07:49;;;;;;;13.82;12.43;;;11.30;99.90;;;;;;5014103;28;20137;-78
2021/04/11 00:10:19;;;;;;;14.68;12.38;;;11.30;99.90;;;;;;5013929;28;20046;-78
2021/04/11 00:12:45;;;;;;;14.43;12.27;;;11.40;99.90;;;;;;5017745;28;20090;-80
2021/04/11 00:15:13;;;;;;;13.98;11.50;;;11.40;99.90;;;;;;5017141;28;20112;-81
2021/04/11 00:17:39;;;;;;;13.90;11.88;;;11.50;99.90;;;;;;5027042;28;20050;-80
2021/04/11 00:20:07;;;;;;;15.73;11.80;;;11.60;99.90;;;;;;5027804;28;20100;-81
2021/04/11 00:22:33;;;;;;;17.00;12.25;;;11.60;99.90;;;;;;5027017;28;20143;-80
2021/04/11 00:25:00;;;;;;;15.60;12.75;;;11.60;99.90;;;;;;5027804;28;20096;-81
2021/04/11 00:27:27;;;;;;;15.43;12.05;;;11.50;99.90;;;;;;5026667;28;20073;-81
2021/04/11 00:29:53;;;;;;;15.73;12.75;;;11.40;99.90;;;;;;5028098;28;20542;-82
2021/04/11 00:32:20;;;;;;;13.18;11.68;;;11.30;99.90;;;;;;5027119;28;20486;-82
2021/04/11 00:34:46;;;;;;;15.68;12.60;;;11.30;99.90;;;;;;5023469;28;20081;-81
2021/04/11 00:37:13;;;;;;;15.45;12.77;;;11.20;99.90;;;;;;5021286;28;20092;-80
2021/04/11 00:39:39;;;;;;;14.70;12.30;;;11.10;99.90;;;;;;5024916;28;20082;-81
2021/04/11 00:42:09;;;;;;;17.15;13.10;;;11.00;99.90;;;;;;5024527;28;20077;-80
2021/04/11 00:44:36;;;;;;;16.23;13.30;;;11.00;99.90;;;;;;5025527;28;20086;-79
2021/04/11 00:47:04;;;;;;;16.10;12.77;;;11.00;99.90;;;;;;5023529;28;20050;-80
2021/04/11 00:49:36;;;;;;;14.88;13.05;;;11.00;99.90;;;;;;5023562;28;20053;-81
2021/04/11 00:52:05;;;;;;;16.10;14.07;;;10.90;99.90;;;;;;5024080;28;20129;-81
2021/04/11 00:54:32;;;;;;;16.27;12.82;;;10.90;99.90;;;;;;5024058;28;20114;-81
2021/04/11 00:57:00;;;;;;;14.55;12.43;;;10.90;99.90;;;;;;5022130;28;20129;-81
2021/04/11 00:59:26;;;;;;;16.75;12.23;;;10.90;99.90;;;;;;5018163;28;20046;-81
2021/04/11 01:01:54;;;;;;;13.45;12.05;;;10.90;99.90;;;;;;5017395;28;20053;-80
2021/04/11 01:04:21;;;;;;;14.43;12.32;;;11.00;99.90;;;;;;5017551;28;20218;-81
2021/04/11 01:06:50;;;;;;;13.90;12.43;;;10.90;99.90;;;;;;5016063;28;20478;-80
2021/04/11 01:09:21;;;;;;;15.48;12.45;;;11.00;99.90;;;;;;5015731;28;20129;-80
2021/04/11 01:11:49;;;;;;;17.67;12.57;;;11.00;99.90;;;;;;5016769;28;20088;-80
2021/04/11 01:14:17;;;;;;;18.60;12.50;;;11.00;99.90;;;;;;5016952;28;20077;-80
2021/04/11 01:16:43;;;;;;;13.52;11.80;;;11.00;99.90;;;;;;5022119;28;20085;-80
2021/04/11 01:19:13;;;;;;;13.38;11.90;;;11.10;99.90;;;;;;5018332;28;20082;-81
2021/04/11 01:21:47;;;;;;;12.95;11.13;;;11.10;99.90;;;;;;5018526;28;20076;-81
2021/04/11 01:24:19;;;;;;;15.25;12.05;;;11.10;99.90;;;;;;5018746;28;20077;-81
2021/04/11 01:26:49;;;;;;;13.00;11.45;;;11.10;99.90;;;;;;5020501;28;20114;-82
2021/04/11 01:29:15;;;;;;;12.73;11.43;;;11.10;99.90;;;;;;5020539;28;20085;-81
2021/04/11 01:31:42;;;;;;;13.48;12.07;;;11.10;99.90;;;;;;5024500;28;20112;-81
2021/04/11 01:34:10;;;;;;;14.18;12.23;;;11.20;99.90;;;;;;5031938;28;20042;-81
2021/04/11 01:36:39;;;;;;;14.43;12.02;;;11.20;99.90;;;;;;5035142;28;20074;-82
2021/04/11 01:39:09;;;;;;;13.93;12.20;;;11.20;99.90;;;;;;5026489;28;20092;-80
2021/04/11 01:41:38;;;;;;;14.40;12.30;;;11.20;99.90;;;;;;5019070;28;20132;-80
2021/04/11 01:44:07;;;;;;;14.70;12.57;;;11.20;99.90;;;;;;5019415;28;20073;-80
2021/04/11 01:46:35;;;;;;;13.52;11.65;;;11.20;99.90;;;;;;5021283;28;20316;-80
2021/04/11 01:49:02;;;;;;;13.10;11.80;;;11.30;99.90;;;;;;5023728;28;20053;-79
2021/04/11 01:51:31;;;;;;;15.82;12.77;;;11.40;99.90;;;;;;5025493;28;20379;-82
2021/04/11 01:53:58;;;;;;;15.88;13.07;;;11.40;99.90;;;;;;5021942;28;20050;-76
2021/04/11 01:56:26;;;;;;;13.13;11.68;;;11.40;99.90;;;;;;5014337;28;20203;-80
2021/04/11 01:58:52;;;;;;;14.07;11.45;;;11.40;99.90;;;;;;5014283;28;20107;-79
2021/04/11 02:01:23;;;;;;;12.68;11.00;;;11.50;99.90;;;;;;5012815;28;20128;-80
2021/04/11 02:03:54;;;;;;;12.25;10.95;;;11.50;99.90;;;;;;5013304;28;20056;-80
2021/04/11 02:06:21;;;;;;;10.68;9.50;;;11.40;99.90;;;;;;5013280;28;20398;-80
2021/04/11 02:08:50;;;;;;;12.90;9.20;;;11.40;99.90;;;;;;5013518;28;20100;-79
2021/04/11 02:11:17;;;;;;;12.75;9.77;;;11.40;99.90;;;;;;5013248;28;20052;-79
2021/04/11 02:13:44;;;;;;;11.63;9.13;;;11.40;99.90;;;;;;5015318;28;20539;-79
2021/04/11 02:16:14;;;;;;;10.45;9.13;;;11.40;99.90;;;;;;5019450;28;20137;-77
2021/04/11 02:18:42;;;;;;;10.93;9.27;;;11.40;99.90;;;;;;5022808;28;20092;-80
2021/04/11 02:21:13;;;;;;;11.55;9.70;;;11.40;99.90;;;;;;5020902;28;20129;-81
2021/04/11 02:23:40;;;;;;;11.40;9.55;;;11.40;99.90;;;;;;5023134;28;20140;-80
2021/04/11 02:26:09;;;;;;;11.35;9.50;;;11.40;99.90;;;;;;5023371;28;20076;-78
2021/04/11 02:28:36;;;;;;;11.18;9.18;;;11.40;99.90;;;;;;5023107;28;20045;-81
2021/04/11 02:31:19;;;;;;;10.73;9.63;;;11.40;99.90;;;;;;5024357;28;20141;-80
2021/04/11 02:33:54;;;;;;;10.82;8.60;;;11.40;99.90;;;;;;5023436;28;20053;-80
2021/04/11 02:36:23;;;;;;;10.35;9.25;;;11.40;99.90;;;;;;5026624;28;20050;-79
2021/04/11 02:38:52;;;;;;;10.90;9.23;;;11.40;99.90;;;;;;5028161;28;20081;-80
2021/04/11 02:41:25;;;;;;;10.75;9.18;;;11.40;99.90;;;;;;5019303;28;20121;-80
2021/04/11 02:43:51;;;;;;;10.93;8.75;;;11.50;99.90;;;;;;5021354;28;20049;-80
2021/04/11 02:46:18;;;;;;;26.75;18.50;;;11.50;99.90;;;;;;5020532;28;20117;-80
2021/04/11 02:48:45;;;;;;;31.88;23.38;;;11.30;99.90;;;;;;5021653;28;20066;-81
2021/04/11 02:51:13;;;;;;;30.10;23.05;;;11.10;99.90;;;;;;5022035;28;20133;-80
2021/04/11 02:53:40;;;;;;;30.88;24.13;;;10.90;99.90;;;;;;5020866;28;20137;-80
2021/04/11 02:56:07;;;;;;;29.33;22.90;;;10.70;99.90;;;;;;5021694;28;20143;-78
2021/04/11 02:58:34;;;;;;;25.88;20.58;;;10.60;99.90;;;;;;5020731;28;20131;-82
2021/04/11 03:01:06;;;;;;;28.10;20.77;;;10.40;99.90;;;;;;5020606;28;20093;-80
2021/04/11 03:03:33;;;;;;;28.48;20.73;;;10.30;99.90;;;;;;5019199;28;20128;-80
2021/04/11 03:06:04;;;;;;;28.15;19.05;;;10.30;99.90;;;;;;5018772;28;20129;-80
2021/04/11 03:08:35;;;;;;;22.77;17.40;;;10.20;99.90;;;;;;5018734;28;20054;-80
2021/04/11 03:11:11;;;;;;;22.05;16.15;;;10.00;99.90;;;;;;5018859;28;20565;-80
2021/04/11 03:13:39;;;;;;;21.20;15.90;;;10.00;99.90;;;;;;5019190;28;20548;-80
2021/04/11 03:16:06;;;;;;;17.63;14.27;;;9.90;99.90;;;;;;5018977;28;20050;-80
2021/04/11 03:18:33;;;;;;;18.08;13.75;;;9.70;99.90;;;;;;5017937;28;20532;-80
2021/04/11 03:21:00;;;;;;;17.35;13.75;;;9.60;99.90;;;;;;5015815;28;20132;-79
2021/04/11 03:23:26;;;;;;;19.08;14.75;;;9.50;99.90;;;;;;5015648;28;20056;-79
2021/04/11 03:26:01;;;;;;;17.85;14.10;;;9.40;99.90;;;;;;5016543;28;20106;-81
2021/04/11 03:28:33;;;;;;;16.38;13.05;;;9.30;99.90;;;;;;5018988;28;20068;-80
2021/04/11 03:31:04;;;;;;;15.55;12.57;;;9.30;99.90;;;;;;5019907;28;20508;-80
2021/04/11 03:33:34;;;;;;;15.50;12.75;;;9.20;99.90;;;;;;5019553;28;20061;-80
2021/04/11 03:36:02;;;;;;;16.10;13.43;;;9.10;99.90;;;;;;5018338;28;20140;-79
2021/04/11 03:38:30;;;;;;;15.70;12.20;;;9.00;99.90;;;;;;5017283;28;20073;-80
2021/04/11 03:40:59;;;;;;;14.80;11.82;;;8.90;99.90;;;;;;5017019;28;20481;-80
2021/04/11 03:43:29;;;;;;;17.00;11.52;;;8.90;99.90;;;;;;5021155;28;20109;-80
2021/04/11 03:45:57;;;;;;;14.73;12.60;;;8.90;99.90;;;;;;5019640;28;20045;-80
2021/04/11 03:48:30;;;;;;;15.25;10.95;;;8.90;99.90;;;;;;5019725;28;20135;-81
2021/04/11 03:50:58;;;;;;;;;;;8.80;99.90;;;;;;5020346;28;20147;-80
2021/04/11 03:53:33;;;;;;;13.13;10.38;;;8.80;99.90;;;;;;5019421;28;20019;-79
2021/04/11 03:56:04;;;;;;;13.32;10.73;;;8.70;99.90;;;;;;5019505;28;20478;-80
2021/04/11 03:58:33;;;;;;;13.95;11.65;;;8.60;99.90;;;;;;5018581;28;20046;-80
2021/04/11 04:01:04;;;;;;;13.90;11.90;;;8.60;99.90;;;;;;5019033;28;20471;-80
2021/04/11 04:03:33;;;;;;;17.77;14.20;;;8.60;99.90;;;;;;5017877;28;20105;-80
2021/04/11 04:06:06;;;;;;;18.80;14.55;;;8.60;99.90;;;;;;5016847;28;20501;-79
2021/04/11 04:08:32;;;;;;;17.13;13.52;;;8.40;99.90;;;;;;5015824;28;20481;-79
2021/04/11 04:11:14;;;;;;;15.65;12.35;;;8.30;99.90;;;;;;5038949;22;20149;-77
2021/04/11 04:14:00;;;;;;;12.80;10.27;;;8.20;99.90;;;;;;5022629;28;20081;-76
2021/04/11 04:16:38;;;;;;;11.25;8.93;;;8.10;99.90;;;;;;5024729;28;20106;-77
2021/04/11 04:19:33;;;;;;;11.02;8.75;;;8.00;99.90;;;;;;5025366;28;20129;-77
2021/04/11 04:22:11;;;;;;;9.43;7.55;;;7.90;99.90;;;;;;5014430;28;20060;-77
2021/04/11 04:24:48;;;;;;;10.13;7.45;;;7.80;99.90;;;;;;5013852;28;20096;-77
2021/04/11 04:27:28;;;;;;;9.98;7.93;;;7.80;99.90;;;;;;5013369;28;20046;-77
2021/04/11 04:30:09;;;;;;;9.93;7.53;;;7.70;99.90;;;;;;5013891;28;20081;-77
2021/04/11 04:32:51;;;;;;;9.32;7.28;;;7.70;99.90;;;;;;5013845;28;20093;-77
2021/04/11 04:35:26;;;;;;;9.57;7.43;;;7.60;99.90;;;;;;5013666;28;20081;-78
2021/04/11 04:38:01;;;;;;;11.20;8.63;;;7.60;99.90;;;;;;5014006;28;20115;-78
2021/04/11 04:40:43;;;;;;;11.02;8.38;;;7.60;99.90;;;;;;5013230;28;20058;-77
2021/04/11 04:43:18;;;;;;;12.60;8.83;;;7.60;99.90;;;;;;5013025;28;20156;-78
2021/04/11 04:45:50;;;;;;;11.20;8.07;;;7.50;99.90;;;;;;5013133;28;20544;-78
2021/04/11 04:48:22;;;;;;;11.80;9.15;;;7.60;99.90;;;;;;5012907;28;20046;-78
2021/04/11 04:50:57;;;;;;;12.80;10.07;;;7.60;99.90;;;;;;5013387;28;20084;-77
2021/04/11 04:53:29;;;;;;;13.25;10.52;;;7.60;99.90;;;;;;5013143;28;20085;-77
2021/04/11 04:56:00;;;;;;;12.55;10.43;;;7.60;99.90;;;;;;5013084;28;20136;-78
2021/04/11 04:58:31;;;;;;;16.73;12.70;;;7.60;99.90;;;;;;5013237;28;20060;-78
2021/04/11 05:01:02;;;;;;;16.25;13.10;;;7.50;99.90;;;;;;5014194;28;20132;-79
2021/04/11 05:03:34;;;;;;;20.63;15.85;;;7.40;99.90;;;;;;5015064;28;20053;-78
2021/04/11 05:06:06;;;;;;;22.05;16.05;;;7.30;99.90;;;;;;5015658;28;20069;-78
2021/04/11 05:08:40;;;;;;;19.92;15.90;;;7.20;99.90;;;;;;5017931;28;20072;-78
2021/04/11 05:11:12;;;;;;;19.30;14.95;;;7.10;99.90;;;;;;5009826;28;20136;-78
2021/04/11 05:13:45;;;;;;;17.67;13.87;;;7.10;99.90;;;;;;5036819;28;20080;-76
2021/04/11 05:16:19;;;;;;;15.18;12.50;;;7.00;99.90;;;;;;5048961;28;20300;-77
2021/04/11 05:18:49;;;;;;;14.25;10.18;;;7.00;99.90;;;;;;5047979;28;20128;-78
2021/04/11 05:21:20;;;;;;;11.88;9.48;;;7.00;99.90;;;;;;5050353;28;20077;-77
2021/04/11 05:23:50;;;;;;;11.82;9.23;;;6.90;99.90;;;;;;5048823;28;20317;-78
2021/04/11 05:26:21;;;;;;;13.13;9.90;;;6.80;99.90;;;;;;5033061;28;20049;-78
2021/04/11 05:28:58;;;;;;;13.68;10.90;;;6.70;99.90;;;;;;5013771;28;20100;-78
2021/04/11 05:31:27;;;;;;;15.60;11.77;;;6.70;99.90;;;;;;5012345;28;20046;-77
2021/04/11 05:33:54;;;;;;;16.77;12.93;;;6.60;99.90;;;;;;5012365;28;20433;-76
2021/04/11 05:36:32;;;;;;;14.38;11.13;;;6.50;99.90;;;;;;5012056;28;20449;-77
2021/04/11 05:39:05;;;;;;;12.82;10.02;;;6.50;99.90;;;;;;5012080;28;20050;-77
2021/04/11 05:41:38;;;;;;;13.98;10.50;;;6.40;99.90;;;;;;5012091;28;20054;-78
2021/04/11 05:44:14;;;;;;;12.27;9.60;;;6.40;99.90;;;;;;5012570;28;20461;-77
2021/04/11 05:46:45;;;;;;;12.40;9.70;;;6.50;99.90;;;;;;5011992;28;20050;-78
2021/04/11 05:49:16;;;;;;;13.32;10.40;;;6.50;99.90;;;;;;5015181;28;20046;-78
2021/04/11 05:51:51;;;;;;;11.98;9.75;;;6.50;99.90;;;;;;5016243;28;20077;-78
2021/04/11 05:54:21;;;;;;;12.25;10.32;;;6.50;99.90;;;;;;5016573;28;20476;-78
2021/04/11 05:56:51;;;;;;;13.10;10.38;;;6.50;99.90;;;;;;5019513;28;20058;-77
2021/04/11 05:59:23;;;;;;;15.75;10.93;;;6.40;99.90;;;;;;5018617;28;20108;-76
2021/04/11 06:01:53;;;;;;;17.75;13.15;;;6.40;99.90;;;;;;5020554;28;20053;-76
2021/04/11 06:04:26;;;;;;;19.60;13.65;;;6.30;99.90;;;;;;5012531;28;20180;-76
2021/04/11 06:06:58;;;;;;;17.92;13.38;;;6.20;99.90;;;;;;5016301;28;20080;-75
2021/04/11 06:09:34;;;;;;;18.75;14.02;;;6.20;99.90;;;;;;5017030;28;20058;-76
2021/04/11 06:12:05;;;;;;;19.80;14.65;;;6.30;99.90;;;;;;5016956;28;20054;-76
2021/04/11 06:14:36;;;;;;;19.70;14.45;;;6.20;99.90;;;;;;5018650;28;20135;-76
2021/04/11 06:17:08;;;;;;;16.80;12.55;;;6.20;99.90;;;;;;5017194;28;20141;-78
2021/04/11 06:19:34;;;;;;;18.42;13.63;;;6.20;99.90;;;;;;5015551;28;20041;-78
2021/04/11 06:22:05;;;;;;;20.05;14.45;;;6.20;99.90;;;;;;5015517;28;20089;-77
2021/04/11 06:24:41;;;;;;;21.15;15.27;;;6.20;99.90;;;;;;5015158;28;20073;-77
2021/04/11 06:27:20;;;;;;;20.15;14.95;;;6.10;99.90;;;;;;5016008;28;20140;-78
2021/04/11 06:29:54;;;;;;;20.90;14.57;;;6.10;99.90;;;;;;5017815;28;20065;-78
2021/04/11 06:32:22;;;;;;;19.77;14.02;;;6.10;99.90;;;;;;5015647;28;20133;-77
2021/04/11 06:34:52;;;;;;;20.55;15.13;;;6.10;99.90;;;;;;5013185;28;20046;-77
2021/04/11 06:37:21;;;;;;;23.75;15.85;;;6.00;99.90;;;;;;5012643;28;20054;-77
2021/04/11 06:39:49;;;;;;;19.85;14.30;;;6.00;99.90;;;;;;5012642;28;20117;-77
2021/04/11 06:43:06;;;;;;;17.40;13.00;;;6.00;99.90;;;;;;5013465;28;20471;-77
2021/04/11 06:45:37;;;;;;;18.10;12.55;;;6.00;99.90;;;;;;4966207;28;20068;-77
2021/04/11 06:48:35;;;;;;;19.60;13.63;;;5.90;99.90;;;;;;5013760;28;20053;-77
2021/04/11 06:51:31;;;;;;;17.52;12.90;;;5.90;99.90;;;;;;5014378;28;20050;-76
2021/04/11 06:54:32;;;;;;;18.33;12.60;;;5.80;99.90;;;;;;5014915;28;20081;-78
2021/04/11 06:57:14;;;;;;;14.13;10.90;;;5.90;99.90;;;;;;5014433;28;20056;-77
2021/04/11 06:59:55;;;;;;;15.43;10.95;;;5.90;99.90;;;;;;5013201;28;20487;-76
2021/04/11 07:02:50;;;;;;;13.70;10.55;;;5.80;99.90;;;;;;5014562;28;20090;-77
2021/04/11 07:05:37;;;;;;;14.30;10.23;;;5.80;99.90;;;;;;5014160;28;20099;-76
2021/04/11 07:08:35;;;;;;;13.13;9.95;;;5.90;99.90;;;;;;5013791;28;20049;-77
2021/04/11 07:11:43;;;;;;;12.85;9.60;;;5.80;99.90;;;;;;5014093;28;20137;-77
2021/04/11 07:14:40;;;;;;;11.98;9.18;;;5.90;99.90;;;;;;4966444;28;20056;-78
2021/04/11 07:17:24;;;;;;;11.45;8.60;;;5.90;99.90;;;;;;5013938;28;20128;-78
2021/04/11 07:20:12;;;;;;;9.98;8.10;;;5.80;99.90;;;;;;5014162;28;20459;-78
2021/04/11 07:23:27;;;;;;;12.52;7.97;;;5.80;99.90;;;;;;5014466;28;20061;-78
2021/04/11 07:26:35;;;;;;;11.23;7.85;;;5.70;99.90;;;;;;4953334;29;20055;-77
2021/04/11 07:29:14;;;;;;;13.70;8.77;;;5.70;99.90;;;;;;5012451;28;20461;-77
2021/04/11 07:31:59;;;;;;;12.82;9.75;;;5.70;99.90;;;;;;5014168;28;20086;-78
2021/04/11 07:34:49;;;;;;;16.38;10.90;;;5.70;99.90;;;;;;5014975;28;20132;-79
2021/04/11 07:37:27;;;;;;;15.63;11.05;;;5.70;99.90;;;;;;5013897;28;20502;-78
2021/04/11 07:40:02;;;;;;;16.13;11.52;;;5.70;99.90;;;;;;5015230;28;20049;-79
2021/04/11 07:43:10;;;;;;;17.33;11.68;;;5.70;99.90;;;;;;5015648;28;20049;-78
2021/04/11 07:46:05;;;;;;;16.92;11.35;;;5.70;99.90;;;;;;5015569;28;20525;-78
2021/04/11 07:48:55;;;;;;;17.95;13.43;;;5.80;99.90;;;;;;5009667;28;20046;-78
2021/04/11 07:51:42;;;;;;;18.08;13.45;;;5.80;99.90;;;;;;5017610;28;20561;-79
2021/04/11 07:54:25;;;;;;;19.92;14.68;;;5.90;99.90;;;;;;5015770;28;20054;-79
2021/04/11 07:57:18;;;;;;;18.90;12.98;;;5.90;99.90;;;;;;5015791;28;20502;-78
2021/04/11 08:00:12;;;;;;;16.10;11.93;;;6.00;99.90;;;;;;5016276;28;20136;-79
2021/04/11 08:03:08;;;;;;;16.48;12.48;;;5.90;99.90;;;;;;5017903;28;20128;-79
2021/04/11 08:06:22;;;;;;;16.98;11.55;;;5.90;99.90;;;;;;5019539;28;20056;-80
2021/04/11 08:09:15;;;;;;;16.00;12.68;;;5.90;99.90;;;;;;4922422;29;20183;-79
2021/04/11 08:12:16;;;;;;;14.27;11.07;;;6.00;99.90;;;;;;4939888;29;20115;-79
2021/04/11 08:14:50;;;;;;;14.70;10.50;;;6.00;99.90;;;;;;5008814;28;20100;-80
2021/04/11 08:17:35;;;;;;;13.32;9.77;;;6.00;99.90;;;;;;5019314;28;20140;-80
2021/04/11 08:20:11;;;;;;;11.70;9.02;;;6.10;99.90;;;;;;5021495;28;20049;-80
2021/04/11 08:22:55;;;;;;;11.27;8.10;;;6.00;99.90;;;;;;5020648;28;20065;-79
2021/04/11 08:25:30;;;;;;;12.43;9.10;;;6.00;99.90;;;;;;5019264;28;20109;-79
2021/04/11 08:28:23;;;;;;;11.85;9.05;;;6.00;99.90;;;;;;5017023;28;20132;-78
2021/04/11 08:30:58;;;;;;;9.68;7.10;;;5.90;99.90;;;;;;5014384;28;20132;-78
2021/04/11 08:34:04;;;;;;;11.13;8.32;;;5.80;99.90;;;;;;5015765;28;20053;-79
2021/04/11 08:36:47;;;;;;;9.60;7.28;;;5.80;99.90;;;;;;5016643;28;20148;-79
2021/04/11 08:39:51;;;;;;;9.57;7.68;;;5.80;99.90;;;;;;5017353;28;20050;-79
2021/04/11 08:42:38;;;;;;;10.05;7.85;;;5.80;99.90;;;;;;5017966;28;20158;-79
2021/04/11 08:45:18;;;;;;;6.90;5.72;;;5.80;99.90;;;;;;5018556;28;20509;-79
2021/04/11 08:47:51;;;;;;;7.95;6.32;;;5.70;99.90;;;;;;5016297;28;20085;-78
2021/04/11 08:50:20;;;;;;;6.25;5.38;;;5.70;99.90;;;;;;5016143;28;20046;-79
2021/04/11 08:53:02;;;;;;;7.93;5.78;;;5.70;99.90;;;;;;5017163;28;20153;-79
2021/04/11 08:55:36;;;;;;;7.60;5.97;;;5.80;99.90;;;;;;5017314;28;20107;-79
2021/04/11 08:58:17;;;;;;;7.43;5.20;;;5.80;99.90;;;;;;5015598;28;20053;-80
2021/04/11 09:00:49;;;;;;;6.07;4.75;;;5.80;99.90;;;;;;5016703;28;20069;-78
2021/04/11 09:03:40;;;;;;;6.60;5.38;;;5.80;99.90;;;;;;5017075;28;20104;-78
2021/04/11 09:06:14;;;;;;;6.43;5.28;;;5.90;99.90;;;;;;5008653;28;20128;-76
2021/04/11 09:08:58;;;;;;;7.30;5.35;;;5.90;99.90;;;;;;5018486;28;20084;-77
2021/04/11 09:11:33;;;;;;;5.57;4.97;;;5.90;99.90;;;;;;5017444;28;20111;-78
2021/04/11 09:14:36;;;;;;;7.32;5.63;;;5.90;99.90;;;;;;5017883;28;20054;-78
2021/04/11 09:17:13;;;;;;;6.50;5.65;;;5.90;99.90;;;;;;5012739;28;20050;-79
2021/04/11 09:19:47;;;;;;;6.93;5.57;;;5.90;99.90;;;;;;5014779;28;20082;-77
2021/04/11 09:22:24;;;;;;;6.00;4.97;;;6.00;99.90;;;;;;5015084;28;20550;-77
2021/04/11 09:24:59;;;;;;;6.38;5.65;;;6.00;99.90;;;;;;5019573;28;20141;-78
2021/04/11 09:27:53;;;;;;;6.15;5.10;;;5.90;99.90;;;;;;5020900;28;20573;-80
2021/04/11 09:30:43;;;;;;;6.13;5.38;;;6.00;99.90;;;;;;5019212;28;20547;-77
2021/04/11 09:33:33;;;;;;;6.80;5.63;;;6.00;99.90;;;;;;5019793;28;20046;-79
2021/04/11 09:36:13;;;;;;;6.90;5.15;;;6.10;99.90;;;;;;5021401;28;20478;-79
2021/04/11 09:38:59;;;;;;;8.15;6.25;;;6.10;99.90;;;;;;5021690;28;20076;-79
2021/04/11 09:42:00;;;;;;;7.70;6.03;;;6.10;99.90;;;;;;5021843;28;20085;-79
2021/04/11 09:44:46;;;;;;;6.53;5.65;;;6.00;99.90;;;;;;5023358;28;20129;-79
2021/04/11 09:47:30;;;;;;;6.28;5.38;;;6.00;99.90;;;;;;5034029;28;20104;-79
2021/04/11 09:50:15;;;;;;;5.95;5.28;;;6.00;99.90;;;;;;5034719;28;20057;-81
2021/04/11 09:53:03;;;;;;;5.28;4.47;;;5.90;99.90;;;;;;5033929;28;20080;-79
2021/04/11 09:55:36;;;;;;;6.55;5.18;;;5.80;99.90;;;;;;5025424;28;20140;-80
2021/04/11 09:58:45;;;;;;;5.57;4.75;;;5.80;99.90;;;;;;5022357;28;20054;-80
2021/04/11 10:01:20;;;;;;;6.47;5.38;;;5.90;99.90;;;;;;5023059;28;20085;-79
2021/04/11 10:04:00;;;;;;;6.75;5.40;;;5.90;99.90;;;;;;5019598;28;20060;-79
2021/04/11 10:06:47;;;;;;;6.57;5.10;;;6.00;99.90;;;;;;5020664;28;20100;-80
2021/04/11 10:09:35;;;;;;;5.75;4.60;;;6.00;99.90;;;;;;5022655;28;20136;-79
2021/04/11 10:12:22;;;;;;;8.52;4.85;;;5.90;99.90;;;;;;5049512;23;20076;-78
2021/04/11 10:14:57;;;;;;;6.82;5.40;;;5.90;99.90;;;;;;5020335;28;20165;-79
2021/04/11 10:17:39;;;;;;;5.47;4.78;;;5.80;99.90;;;;;;5042205;28;20049;-78
2021/04/11 10:20:13;;;;;;;6.65;5.75;;;5.90;99.90;;;;;;5055997;28;20106;-79
2021/04/11 10:22:54;;;;;;;5.63;4.40;;;5.90;99.90;;;;;;5055668;28;20106;-79
2021/04/11 10:25:35;;;;;;;6.65;5.90;;;5.90;99.90;;;;;;5056345;28;20071;-80
2021/04/11 10:28:11;;;;;;;4.45;4.00;;;5.90;99.90;;;;;;5057138;28;20127;-78
2021/04/11 10:30:38;;;;;;;6.13;4.63;;;5.80;99.90;;;;;;5056903;28;20045;-80
2021/04/11 10:33:10;;;;;;;7.45;4.85;;;5.80;99.90;;;;;;5056791;28;20053;-80
2021/04/11 10:35:55;;;;;;;5.50;4.90;;;5.90;99.90;;;;;;5057037;28;20141;-79
2021/04/11 10:38:27;;;;;;;5.63;4.65;;;5.90;99.90;;;;;;5058613;28;20049;-81
2021/04/11 10:41:10;;;;;;;5.72;4.80;;;5.90;99.90;;;;;;5057859;28;20049;-81
2021/04/11 10:43:52;;;;;;;5.35;4.85;;;5.90;99.90;;;;;;5062268;28;20108;-79
2021/04/11 10:46:22;;;;;;;6.30;5.50;;;5.90;99.90;;;;;;5062256;28;20055;-80
2021/04/11 10:49:09;;;;;;;8.05;5.90;;;6.00;99.90;;;;;;5063923;28;20124;-80
2021/04/11 10:52:11;;;;;;;5.22;4.72;;;6.10;99.90;;;;;;5062142;28;20131;-79
2021/04/11 10:55:21;;;;;;;6.30;4.90;;;6.00;99.90;;;;;;5024189;28;20148;-81
2021/04/11 10:58:19;;;;;;;6.38;4.70;;;6.00;99.90;;;;;;5054927;28;20088;-80
2021/04/11 11:00:58;;;;;;;8.85;5.20;;;6.00;99.90;;;;;;5021412;28;20045;-80
2021/04/11 11:04:09;;;;;;;5.53;4.90;;;6.00;99.90;;;;;;5056628;28;20095;-80
2021/04/11 11:07:05;;;;;;;5.53;4.78;;;6.10;99.90;;;;;;5055557;28;20081;-79
2021/04/11 11:09:39;;;;;;;5.32;4.82;;;6.10;99.90;;;;;;5055631;28;20424;-79
2021/04/11 11:12:43;;;;;;;5.72;5.00;;;6.10;99.90;;;;;;5055541;28;20615;-78
2021/04/11 11:15:38;;;;;;;6.13;5.43;;;6.00;99.90;;;;;;5025675;28;20048;-78
2021/04/11 11:18:30;;;;;;;6.55;5.35;;;5.80;99.90;;;;;;5025298;28;20080;-79
2021/04/11 11:21:08;;;;;;;6.32;5.70;;;5.60;99.90;;;;;;5055523;28;20104;-80
2021/04/11 11:24:02;;;;;;;7.75;6.07;;;5.60;99.90;;;;;;5056825;28;20414;-80
2021/04/11 11:26:54;;;;;;;7.35;6.50;;;5.60;99.90;;;;;;5054337;28;20083;-79
2021/04/11 11:30:00;;;;;;;6.32;5.22;;;5.70;99.90;;;;;;5054402;28;20113;-80
2021/04/11 11:32:32;;;;;;;6.60;5.05;;;5.80;99.90;;;;;;5055291;28;20178;-80
2021/04/11 11:35:01;;;;;;;4.55;4.15;;;5.90;99.90;;;;;;5056611;28;20076;-79
2021/04/11 11:37:51;;;;;;;4.45;3.95;;;5.90;99.90;;;;;;5055242;28;20561;-81
2021/04/11 11:40:26;;;;;;;4.80;4.20;;;5.90;99.90;;;;;;5055975;28;20051;-79
2021/04/11 11:43:05;;;;;;;4.43;3.90;;;6.10;99.90;;;;;;5056099;28;20057;-79
2021/04/11 11:45:38;;;;;;;5.22;4.38;;;6.10;99.90;;;;;;5052821;28;20175;-80
2021/04/11 11:48:29;;;;;;;4.40;4.00;;;6.20;99.90;;;;;;5054384;28;20429;-81
2021/04/11 11:51:01;;;;;;;5.03;3.72;;;6.20;99.90;;;;;;5055384;28;20443;-80
2021/04/11 11:53:34;;;;;;;4.88;4.10;;;6.20;99.90;;;;;;5053781;28;20182;-78
2021/04/11 11:56:23;;;;;;;4.57;3.58;;;6.30;99.90;;;;;;5053606;28;20136;-78
2021/04/11 11:58:57;;;;;;;5.00;3.88;;;6.30;99.90;;;;;;5050961;28;20133;-77
2021/04/11 12:01:36;;;;;;;5.47;4.38;;;6.40;99.90;;;;;;5054156;28;20405;-79
2021/04/11 12:04:19;;;;;;;6.30;4.68;;;6.30;99.90;;;;;;5054776;28;20056;-78
2021/04/11 12:06:51;;;;;;;6.25;4.80;;;6.30;99.90;;;;;;5054948;28;20510;-79
2021/04/11 12:09:24;;;;;;;5.63;4.85;;;6.30;99.90;;;;;;5054507;28;20451;-79
2021/04/11 12:11:58;;;;;;;5.68;4.57;;;6.40;99.90;;;;;;5055405;28;20136;-79
2021/04/11 12:14:30;;;;;;;5.90;5.00;;;6.40;99.90;;;;;;5054706;28;20136;-79
2021/04/11 12:17:10;;;;;;;8.90;6.93;;;6.40;99.90;;;;;;5054967;28;20052;-79
2021/04/11 12:19:42;;;;;;;6.60;5.90;;;6.40;99.90;;;;;;5039055;28;20084;-79
2021/04/11 12:22:13;;;;;;;7.55;6.18;;;6.40;99.90;;;;;;5055125;28;20056;-79
2021/04/11 12:24:48;;;;;;;6.75;5.90;;;6.30;99.90;;;;;;5054298;28;20128;-79
2021/04/11 12:27:16;;;;;;;7.25;6.30;;;6.40;99.90;;;;;;5054478;28;20146;-79
2021/04/11 12:29:49;;;;;;;8.68;6.43;;;6.40;99.90;;;;;;5055216;28;20566;-79
2021/04/11 12:32:24;;;;;;;9.10;6.25;;;6.60;99.90;;;;;;5055162;28;20136;-80
2021/04/11 12:34:55;;;;;;;6.63;5.93;;;6.50;99.90;;;;;;5055235;28;20533;-78
2021/04/11 12:37:28;;;;;;;7.88;5.82;;;6.70;99.90;;;;;;5055858;28;20544;-79
2021/04/11 12:40:04;;;;;;;6.18;5.30;;;6.80;99.90;;;;;;5043788;28;20117;-79
2021/04/11 12:42:38;;;;;;;5.40;4.90;;;6.70;99.90;;;;;;5064508;28;20036;-79
2021/04/11 12:45:15;;;;;;;8.27;5.97;;;6.60;99.90;;;;;;5055374;28;20143;-78
2021/04/11 12:47:52;;;;;;;7.18;5.72;;;6.60;99.90;;;;;;5054082;28;20056;-80
2021/04/11 12:50:26;;;;;;;7.22;5.25;;;6.30;99.90;;;;;;5055187;28;20533;-80
2021/04/11 12:53:06;;;;;;;6.30;5.47;;;6.40;99.90;;;;;;5056043;28;20053;-78
2021/04/11 12:55:35;;;;;;;6.95;5.20;;;6.40;99.90;;;;;;5056879;28;20140;-79
2021/04/11 12:58:08;;;;;;;6.45;5.70;;;6.50;99.90;;;;;;5055449;28;20133;-80
2021/04/11 13:00:38;;;;;;;6.65;5.22;;;6.80;99.90;;;;;;5055783;28;20131;-79
2021/04/11 13:03:13;;;;;;;6.88;5.43;;;6.90;99.90;;;;;;5049119;28;20133;-78
2021/04/11 13:05:44;;;;;;;9.50;5.75;;;7.10;99.90;;;;;;5051303;28;20128;-78
2021/04/11 13:08:18;;;;;;;7.40;5.95;;;7.10;99.90;;;;;;5046741;28;20063;-78
2021/04/11 13:11:00;;;;;;;7.25;6.15;;;7.10;99.90;;;;;;5042391;28;20128;-78
2021/04/11 13:13:31;;;;;;;8.70;6.20;;;7.10;99.90;;;;;;5049347;28;20071;-78
2021/04/11 13:16:04;;;;;;;8.98;6.10;;;6.90;99.90;;;;;;5037816;28;20194;-78
2021/04/11 13:18:39;;;;;;;7.72;6.30;;;6.80;99.90;;;;;;5048379;28;20479;-78
2021/04/11 13:21:14;;;;;;;9.02;6.80;;;6.80;99.90;;;;;;5052212;28;20049;-78
2021/04/11 13:23:48;;;;;;;7.68;6.80;;;6.70;99.90;;;;;;5058687;28;20049;-78
2021/04/11 13:26:21;;;;;;;9.75;7.72;;;6.60;99.90;;;;;;5053381;28;20132;-78
2021/04/11 13:28:55;;;;;;;9.85;8.07;;;6.60;99.90;;;;;;5053279;28;20065;-79
2021/04/11 13:31:27;;;;;;;13.88;8.65;;;6.50;99.90;;;;;;5052511;28;20467;-78